Time;durP1;ratioP1;P1;durP2;ratioP2;P2;SDS_P1;SDS_P2;PMS_P1;PMS_P2;Temp;Humidity;BMP_temperature;BMP_pressure;BME280_temperature;BME280_humidity;BME280_pressure;Samples;Min_cycle;Max_cycle;Signal;HPM_P1;HPM_P2
2022/05/02 00:02:07;;;;;;;10.80;6.70;;;;;;;;;;5093083;28;20059;-82
2022/05/02 00:04:32;;;;;;;15.85;6.05;;;;;;;;;;5091569;28;20024;-81
2022/05/02 00:06:58;;;;;;;11.57;6.43;;;;;;;;;;5093521;28;20080;-81
2022/05/02 00:09:24;;;;;;;9.93;6.18;;;;;;;;;;5091800;28;20024;-81
2022/05/02 00:11:49;;;;;;;10.88;6.63;;;;;;;;;;5092687;28;20032;-82
2022/05/02 00:14:15;;;;;;;11.48;6.90;;;;;;;;;;5091394;28;20134;-80
2022/05/02 00:16:40;;;;;;;10.77;6.20;;;;;;;;;;5091783;28;20036;-81
2022/05/02 00:19:06;;;;;;;10.00;6.57;;;;;;;;;;5091426;28;20030;-80
2022/05/02 00:21:32;;;;;;;11.30;7.00;;;;;;;;;;5091963;28;20092;-81
2022/05/02 00:23:57;;;;;;;9.07;6.10;;;;;;;;;;5092625;28;20028;-79
2022/05/02 00:26:23;;;;;;;14.77;6.20;;;;;;;;;;5092595;28;20038;-81
2022/05/02 00:28:48;;;;;;;9.40;6.05;;;;;;;;;;5092663;28;20028;-81
2022/05/02 00:31:14;;;;;;;11.18;6.82;;;;;;;;;;5093147;28;20036;-81
2022/05/02 00:33:39;;;;;;;14.75;6.28;;;;;;;;;;5093260;28;20532;-81
2022/05/02 00:36:05;;;;;;;10.70;6.70;;;;;;;;;;5092938;28;20028;-81
2022/05/02 00:38:31;;;;;;;10.73;6.43;;;;;;;;;;5092427;28;20164;-82
2022/05/02 00:40:58;;;;;;;16.88;6.70;;;;;;;;;;5090655;28;20024;-81
2022/05/02 00:43:25;;;;;;;13.77;7.10;;;;;;;;;;5092373;28;20042;-82
2022/05/02 00:45:50;;;;;;;13.05;6.38;;;;;;;;;;5092674;28;20344;-81
2022/05/02 00:48:16;;;;;;;13.85;6.40;;;;;;;;;;5091215;28;20036;-81
2022/05/02 00:50:44;;;;;;;12.55;6.63;;;;;;;;;;5091144;28;20027;-81
2022/05/02 00:53:12;;;;;;;13.48;6.28;;;;;;;;;;5091690;28;20035;-81
2022/05/02 00:55:39;;;;;;;16.90;6.85;;;;;;;;;;5090571;28;20028;-80
2022/05/02 00:58:05;;;;;;;14.02;6.63;;;;;;;;;;5090698;28;20053;-81
2022/05/02 01:00:33;;;;;;;13.15;6.80;;;;;;;;;;5091172;28;20051;-83
2022/05/02 01:03:00;;;;;;;12.02;6.15;;;;;;;;;;5091326;28;20027;-81
2022/05/02 01:05:26;;;;;;;11.23;7.10;;;;;;;;;;5092137;28;20027;-81
2022/05/02 01:07:52;;;;;;;11.82;6.78;;;;;;;;;;5090640;28;20106;-81
2022/05/02 01:10:18;;;;;;;11.98;6.57;;;;;;;;;;5090646;28;20035;-82
2022/05/02 01:12:46;;;;;;;10.90;6.65;;;;;;;;;;5095187;28;20036;-81
2022/05/02 01:15:13;;;;;;;8.85;6.18;;;;;;;;;;5096018;28;20399;-82
2022/05/02 01:17:38;;;;;;;13.30;6.50;;;;;;;;;;5094922;28;20024;-80
2022/05/02 01:20:12;;;;;;;14.60;7.25;;;;;;;;;;5094792;28;20065;-81
2022/05/02 01:22:38;;;;;;;17.60;6.22;;;;;;;;;;5095222;28;20088;-82
2022/05/02 01:25:04;;;;;;;12.05;6.65;;;;;;;;;;5094708;28;20111;-81
2022/05/02 01:27:29;;;;;;;11.93;7.10;;;;;;;;;;5095422;28;20022;-80
2022/05/02 01:29:55;;;;;;;13.30;7.45;;;;;;;;;;5093673;28;20742;-80
2022/05/02 01:32:21;;;;;;;14.50;6.80;;;;;;;;;;5094491;28;20031;-81
2022/05/02 01:34:46;;;;;;;11.80;7.15;;;;;;;;;;5094524;28;20059;-79
2022/05/02 01:37:14;;;;;;;11.82;6.47;;;;;;;;;;5096035;28;20028;-81
2022/05/02 01:39:40;;;;;;;10.10;6.55;;;;;;;;;;5094103;28;20179;-81
2022/05/02 01:42:07;;;;;;;12.73;7.30;;;;;;;;;;5094489;28;20050;-81
2022/05/02 01:44:34;;;;;;;13.02;7.35;;;;;;;;;;5094780;28;20043;-82
2022/05/02 01:47:00;;;;;;;16.05;7.60;;;;;;;;;;5094179;28;20094;-82
2022/05/02 01:49:26;;;;;;;12.48;6.30;;;;;;;;;;5094548;28;20024;-80
2022/05/02 01:51:51;;;;;;;15.95;6.65;;;;;;;;;;5094327;28;21432;-82
2022/05/02 01:54:17;;;;;;;11.93;6.80;;;;;;;;;;5095208;28;20542;-81
2022/05/02 01:56:44;;;;;;;11.88;7.50;;;;;;;;;;5095024;28;20487;-79
2022/05/02 01:59:10;;;;;;;14.95;7.47;;;;;;;;;;5093804;28;20066;-81
2022/05/02 02:01:35;;;;;;;11.73;7.25;;;;;;;;;;5095630;28;20380;-81
2022/05/02 02:05:48;;;;;;;11.73;6.97;;;;;;;;;;5094119;28;20487;-82
2022/05/02 02:06:48;;;;;;;11.18;7.22;;;;;;;;;;5095762;28;20028;-80
2022/05/02 02:09:15;;;;;;;13.48;8.05;;;;;;;;;;5095186;28;20050;-80
2022/05/02 02:11:40;;;;;;;14.85;7.45;;;;;;;;;;5093851;28;20357;-81
2022/05/02 02:14:06;;;;;;;14.10;8.20;;;;;;;;;;5095032;28;20077;-81
2022/05/02 02:16:32;;;;;;;12.00;7.85;;;;;;;;;;5094265;28;20059;-81
2022/05/02 02:18:57;;;;;;;15.10;7.10;;;;;;;;;;5095110;28;20024;-81
2022/05/02 02:21:23;;;;;;;13.15;7.47;;;;;;;;;;5094781;28;20113;-81
2022/05/02 02:23:48;;;;;;;15.10;8.23;;;;;;;;;;5095055;28;20380;-81
2022/05/02 02:26:14;;;;;;;15.30;7.40;;;;;;;;;;5093712;28;20027;-80
2022/05/02 02:28:39;;;;;;;12.38;7.10;;;;;;;;;;5094259;28;20028;-81
2022/05/02 02:31:05;;;;;;;12.70;8.13;;;;;;;;;;5094988;28;20644;-82
2022/05/02 02:33:31;;;;;;;13.60;7.95;;;;;;;;;;5093510;28;20055;-80
2022/05/02 02:35:56;;;;;;;12.70;7.82;;;;;;;;;;5093459;28;20114;-81
2022/05/02 02:38:22;;;;;;;10.75;7.13;;;;;;;;;;5095079;28;20024;-81
2022/05/02 02:40:48;;;;;;;14.60;7.03;;;;;;;;;;5094177;28;20027;-81
2022/05/02 02:43:13;;;;;;;16.08;7.93;;;;;;;;;;5093066;28;20059;-82
2022/05/02 02:45:39;;;;;;;16.52;7.65;;;;;;;;;;5092407;28;20047;-82
2022/05/02 02:48:05;;;;;;;13.63;7.80;;;;;;;;;;5092882;28;20084;-82
2022/05/02 02:50:31;;;;;;;12.02;8.27;;;;;;;;;;5092741;28;20085;-81
2022/05/02 02:52:56;;;;;;;14.45;7.50;;;;;;;;;;5094818;28;20444;-81
2022/05/02 02:55:22;;;;;;;14.18;8.00;;;;;;;;;;5092104;28;20077;-80
2022/05/02 02:57:48;;;;;;;15.68;8.73;;;;;;;;;;5091724;28;20035;-81
2022/05/02 03:00:16;;;;;;;13.30;7.28;;;;;;;;;;5094409;28;20475;-81
2022/05/02 03:02:54;;;;;;;9.90;6.75;;;;;;;;;;5092360;28;20102;-81
2022/05/02 03:08:05;;;;;;;15.75;8.95;;;;;;;;;;5092964;28;20097;-81
2022/05/02 03:10:30;;;;;;;12.23;7.32;;;;;;;;;;5094639;28;20023;-81
2022/05/02 03:12:57;;;;;;;13.77;6.60;;;;;;;;;;5096452;28;20028;-82
2022/05/02 03:15:23;;;;;;;13.57;7.57;;;;;;;;;;5077206;28;20048;-81
2022/05/02 03:17:49;;;;;;;15.07;7.88;;;;;;;;;;5092233;28;20020;-80
2022/05/02 03:20:14;;;;;;;13.80;8.20;;;;;;;;;;5091848;28;20024;-83
2022/05/02 03:22:41;;;;;;;14.90;8.13;;;;;;;;;;5092862;28;20139;-81
2022/05/02 03:25:07;;;;;;;15.88;7.53;;;;;;;;;;5092161;28;20110;-82
2022/05/02 03:27:32;;;;;;;15.57;7.63;;;;;;;;;;5091851;28;20448;-81
2022/05/02 03:29:58;;;;;;;14.43;7.38;;;;;;;;;;5092118;28;20040;-81
2022/05/02 03:32:40;;;;;;;15.32;8.05;;;;;;;;;;5091906;28;20094;-81
2022/05/02 03:35:07;;;;;;;12.60;7.65;;;;;;;;;;5075112;28;20052;-81
2022/05/02 03:37:32;;;;;;;10.82;7.28;;;;;;;;;;5091263;28;20024;-81
2022/05/02 03:39:58;;;;;;;14.45;7.53;;;;;;;;;;5092596;28;20380;-79
2022/05/02 03:42:23;;;;;;;12.30;7.57;;;;;;;;;;5093239;28;20038;-83
2022/05/02 03:44:49;;;;;;;13.68;7.13;;;;;;;;;;5092831;28;20103;-80
2022/05/02 03:47:14;;;;;;;14.60;7.15;;;;;;;;;;5091537;28;20039;-81
2022/05/02 03:49:40;;;;;;;11.35;6.97;;;;;;;;;;5092890;28;20032;-82
2022/05/02 03:52:06;;;;;;;12.73;7.45;;;;;;;;;;5092944;28;20066;-81
2022/05/02 03:54:31;;;;;;;16.80;7.85;;;;;;;;;;5091902;28;20055;-82
2022/05/02 03:56:56;;;;;;;13.70;7.32;;;;;;;;;;5092527;28;20424;-80
2022/05/02 03:59:22;;;;;;;13.70;7.45;;;;;;;;;;5093796;28;20026;-82
2022/05/02 04:01:48;;;;;;;15.13;7.68;;;;;;;;;;5092849;28;20016;-81
2022/05/02 04:04:13;;;;;;;10.85;6.20;;;;;;;;;;5093331;28;20024;-81
2022/05/02 04:06:39;;;;;;;15.07;7.28;;;;;;;;;;5092694;28;20039;-81
2022/05/02 04:09:04;;;;;;;11.32;6.57;;;;;;;;;;5091166;28;20625;-81
2022/05/02 04:11:30;;;;;;;16.08;6.85;;;;;;;;;;5092375;28;20020;-81
2022/05/02 04:13:57;;;;;;;10.98;6.93;;;;;;;;;;5090938;28;20028;-81
2022/05/02 04:16:23;;;;;;;98.47;17.02;;;;;;;;;;5092330;28;20127;-82
2022/05/02 04:18:48;;;;;;;17.73;7.38;;;;;;;;;;5093136;28;20508;-81
2022/05/02 04:21:14;;;;;;;15.77;8.20;;;;;;;;;;5081546;28;20051;-80
2022/05/02 04:23:40;;;;;;;11.77;7.53;;;;;;;;;;5091867;28;20019;-81
2022/05/02 04:26:05;;;;;;;14.57;8.00;;;;;;;;;;5090941;28;20043;-81
2022/05/02 04:28:31;;;;;;;14.98;7.90;;;;;;;;;;5090929;28;20028;-80
2022/05/02 04:30:57;;;;;;;12.10;7.43;;;;;;;;;;5092271;28;20061;-81
2022/05/02 04:33:23;;;;;;;12.93;7.90;;;;;;;;;;5090638;28;20127;-82
2022/05/02 04:35:57;;;;;;;17.63;8.30;;;;;;;;;;5090457;28;20039;-80
2022/05/02 04:38:24;;;;;;;16.15;8.98;;;;;;;;;;5093403;28;20028;-80
2022/05/02 04:40:49;;;;;;;16.20;9.32;;;;;;;;;;5092432;28;20032;-80
2022/05/02 04:43:18;;;;;;;16.90;10.75;;;;;;;;;;5092960;28;20036;-80
2022/05/02 04:45:46;;;;;;;24.50;10.82;;;;;;;;;;5092522;28;20118;-79
2022/05/02 04:48:18;;;;;;;19.83;11.15;;;;;;;;;;5105255;28;20028;-80
2022/05/02 04:50:43;;;;;;;;;;;;;;;;;;5081182;28;20717;-81
2022/05/02 04:53:12;;;;;;;15.50;10.75;;;;;;;;;;5095245;28;19912;-80
2022/05/02 04:55:37;;;;;;;20.08;10.23;;;;;;;;;;5095548;28;20349;-81
2022/05/02 04:58:03;;;;;;;19.92;10.38;;;;;;;;;;5096007;28;20050;-81
2022/05/02 05:00:28;;;;;;;22.52;10.32;;;;;;;;;;5094270;28;20791;-82
2022/05/02 05:02:54;;;;;;;16.55;9.30;;;;;;;;;;5096478;28;20039;-81
2022/05/02 05:05:19;;;;;;;18.30;9.13;;;;;;;;;;5096072;28;20039;-81
2022/05/02 05:07:45;;;;;;;28.88;9.98;;;;;;;;;;5094117;28;20032;-79
2022/05/02 05:10:11;;;;;;;14.23;8.40;;;;;;;;;;5096429;28;20149;-81
2022/05/02 05:13:07;;;;;;;11.40;8.30;;;;;;;;;;5095847;28;20057;-80
2022/05/02 05:19:28;;;;;;;18.20;8.60;;;;;;;;;;5076849;28;20140;-81
2022/05/02 05:21:58;;;;;;;14.55;9.65;;;;;;;;;;5076765;28;20035;-81
2022/05/02 05:24:49;;;;;;;21.38;10.27;;;;;;;;;;5083623;28;20598;-81
2022/05/02 05:27:23;;;;;;;13.77;9.02;;;;;;;;;;5085305;28;20031;-81
2022/05/02 05:30:06;;;;;;;15.93;8.63;;;;;;;;;;5086846;28;20493;-81
2022/05/02 05:33:06;;;;;;;19.40;9.77;;;;;;;;;;5084614;28;20028;-78
2022/05/02 05:36:02;;;;;;;17.60;10.00;;;;;;;;;;5080146;28;20054;-80
2022/05/02 05:38:58;;;;;;;19.70;9.77;;;;;;;;;;5086655;28;20069;-80
2022/05/02 05:41:56;;;;;;;12.93;8.35;;;;;;;;;;5088297;28;20081;-79
2022/05/02 05:44:44;;;;;;;14.23;8.88;;;;;;;;;;5083834;28;20039;-80
2022/05/02 05:47:31;;;;;;;17.00;9.57;;;;;;;;;;5075591;28;20032;-81
2022/05/02 05:50:24;;;;;;;16.27;9.35;;;;;;;;;;5093507;28;20601;-79
2022/05/02 05:53:14;;;;;;;14.70;9.23;;;;;;;;;;5090020;28;20143;-82
2022/05/02 05:56:00;;;;;;;21.85;14.15;;;;;;;;;;5078953;28;20043;-81
2022/05/02 05:58:49;;;;;;;20.05;10.32;;;;;;;;;;5086479;28;20031;-79
2022/05/02 06:01:28;;;;;;;20.88;10.30;;;;;;;;;;5088379;28;20464;-79
2022/05/02 06:04:09;;;;;;;25.38;12.60;;;;;;;;;;5092695;28;20038;-79
2022/05/02 06:06:36;;;;;;;21.70;11.98;;;;;;;;;;5086318;28;20119;-77
2022/05/02 06:09:05;;;;;;;18.80;12.40;;;;;;;;;;5085092;28;20097;-81
2022/05/02 06:11:39;;;;;;;23.38;12.00;;;;;;;;;;5087609;28;20046;-83
2022/05/02 06:14:06;;;;;;;31.10;15.98;;;;;;;;;;5089359;28;20024;-82
2022/05/02 06:19:28;;;;;;;17.85;11.77;;;;;;;;;;5089144;28;20026;-81
2022/05/02 06:22:00;;;;;;;26.90;11.35;;;;;;;;;;5086436;28;20109;-81
2022/05/02 06:24:31;;;;;;;18.83;11.60;;;;;;;;;;5089354;28;20024;-79
2022/05/02 06:27:00;;;;;;;20.75;13.23;;;;;;;;;;5091538;28;20031;-82
2022/05/02 06:29:28;;;;;;;17.08;11.45;;;;;;;;;;5080668;28;20029;-81
2022/05/02 06:31:58;;;;;;;24.52;11.68;;;;;;;;;;5089088;28;20079;-82
2022/05/02 06:34:29;;;;;;;22.42;13.50;;;;;;;;;;5086424;28;20032;-77
2022/05/02 06:37:13;;;;;;;24.50;13.03;;;;;;;;;;5084913;28;20089;-81
2022/05/02 06:40:02;;;;;;;17.85;11.45;;;;;;;;;;5093813;28;20070;-81
2022/05/02 06:42:56;;;;;;;20.95;12.68;;;;;;;;;;5087009;28;20028;-80
2022/05/02 06:45:51;;;;;;;20.02;11.38;;;;;;;;;;5062932;28;20055;-80
2022/05/02 06:48:37;;;;;;;20.63;12.00;;;;;;;;;;5083414;28;20032;-78
2022/05/02 06:51:09;;;;;;;20.73;11.50;;;;;;;;;;5087150;28;20452;-82
2022/05/02 06:53:46;;;;;;;16.50;12.15;;;;;;;;;;5083917;28;20036;-82
2022/05/02 06:56:46;;;;;;;25.73;12.77;;;;;;;;;;5088013;28;20062;-79
2022/05/02 06:59:24;;;;;;;22.75;13.18;;;;;;;;;;5074928;28;20093;-81
2022/05/02 07:02:09;;;;;;;24.00;12.45;;;;;;;;;;5080960;28;20489;-82
2022/05/02 07:04:42;;;;;;;23.88;12.57;;;;;;;;;;5077562;28;20039;-79
2022/05/02 07:07:38;;;;;;;19.65;12.98;;;;;;;;;;5077344;28;20031;-78
2022/05/02 07:10:34;;;;;;;23.70;13.57;;;;;;;;;;5084030;28;20053;-81
2022/05/02 07:13:29;;;;;;;21.45;12.65;;;;;;;;;;5080602;28;20043;-79
2022/05/02 07:16:04;;;;;;;28.58;15.13;;;;;;;;;;5083233;28;20123;-80
2022/05/02 07:18:54;;;;;;;20.40;12.77;;;;;;;;;;5080489;28;20096;-78
2022/05/02 07:21:34;;;;;;;23.05;13.85;;;;;;;;;;5082407;28;20028;-78
2022/05/02 07:24:15;;;;;;;22.60;12.85;;;;;;;;;;5077456;28;20157;-80
2022/05/02 07:26:42;;;;;;;24.08;12.82;;;;;;;;;;5086800;28;20028;-82
2022/05/02 07:29:08;;;;;;;24.13;13.43;;;;;;;;;;5086527;28;20035;-81
2022/05/02 07:31:35;;;;;;;24.63;14.00;;;;;;;;;;5077358;28;20109;-79
2022/05/02 07:34:02;;;;;;;26.13;13.50;;;;;;;;;;5083963;28;20146;-80
2022/05/02 07:36:31;;;;;;;21.67;13.90;;;;;;;;;;5078160;28;20055;-81
2022/05/02 07:38:59;;;;;;;27.92;14.68;;;;;;;;;;5085181;28;20540;-82
2022/05/02 07:41:27;;;;;;;20.67;13.55;;;;;;;;;;5079350;28;20185;-80
2022/05/02 07:44:05;;;;;;;29.35;14.68;;;;;;;;;;5081206;28;20126;-80
2022/05/02 07:46:54;;;;;;;22.08;14.43;;;;;;;;;;5081082;28;20028;-82
2022/05/02 07:49:23;;;;;;;25.85;14.10;;;;;;;;;;5084687;28;20032;-81
2022/05/02 07:51:51;;;;;;;21.88;13.75;;;;;;;;;;5083001;28;20032;-82
2022/05/02 07:54:21;;;;;;;20.85;13.32;;;;;;;;;;5081972;28;20035;-82
2022/05/02 07:56:49;;;;;;;21.42;13.45;;;;;;;;;;5082851;28;20032;-81
2022/05/02 07:59:18;;;;;;;25.42;14.48;;;;;;;;;;5082216;28;20115;-80
2022/05/02 08:01:44;;;;;;;19.63;13.95;;;;;;;;;;5085365;28;20032;-81
2022/05/02 08:04:14;;;;;;;25.67;13.93;;;;;;;;;;5087433;28;20107;-85
2022/05/02 08:06:48;;;;;;;22.63;13.63;;;;;;;;;;5085497;28;20020;-82
2022/05/02 08:09:49;;;;;;;26.45;14.55;;;;;;;;;;5086665;28;20039;-81
2022/05/02 08:12:52;;;;;;;21.40;14.10;;;;;;;;;;5083892;28;20540;-79
2022/05/02 08:15:32;;;;;;;26.42;14.70;;;;;;;;;;5084799;28;20048;-81
2022/05/02 08:18:39;;;;;;;23.65;15.23;;;;;;;;;;5083906;28;20028;-79
2022/05/02 08:21:16;;;;;;;47.88;16.30;;;;;;;;;;5092283;28;20169;-84
2022/05/02 08:27:19;;;;;;;35.83;16.05;;;;;;;;;;5087956;28;20392;-79
2022/05/02 08:30:03;;;;;;;21.02;14.23;;;;;;;;;;5090273;28;20055;-81
2022/05/02 08:32:56;;;;;;;24.58;15.02;;;;;;;;;;5089751;28;20047;-81
2022/05/02 08:36:11;;;;;;;27.50;15.73;;;;;;;;;;5093809;28;20090;-82
2022/05/02 08:38:56;;;;;;;23.27;15.15;;;;;;;;;;5092154;28;20601;-85
2022/05/02 08:41:58;;;;;;;31.38;15.50;;;;;;;;;;5086883;28;20028;-83
2022/05/02 08:45:01;;;;;;;25.00;15.90;;;;;;;;;;5085416;28;20537;-83
2022/05/02 08:47:53;;;;;;;28.60;15.57;;;;;;;;;;5077104;28;20096;-83
2022/05/02 08:50:34;;;;;;;24.02;16.33;;;;;;;;;;5088242;28;20038;-77
2022/05/02 08:53:46;;;;;;;25.10;14.95;;;;;;;;;;5087874;28;20448;-83
2022/05/02 08:56:17;;;;;;;24.73;16.55;;;;;;;;;;5067404;28;20036;-80
2022/05/02 08:59:22;;;;;;;27.48;16.27;;;;;;;;;;5085640;28;20036;-81
2022/05/02 09:02:09;;;;;;;22.98;16.45;;;;;;;;;;5090784;28;20060;-83
2022/05/02 09:05:12;;;;;;;30.88;17.63;;;;;;;;;;5083417;28;20029;-83
2022/05/02 09:07:58;;;;;;;23.92;15.60;;;;;;;;;;5084208;28;20031;-82
2022/05/02 09:11:02;;;;;;;23.02;16.33;;;;;;;;;;5092784;28;20101;-83
2022/05/02 09:13:30;;;;;;;27.83;15.75;;;;;;;;;;5092669;28;20039;-82
2022/05/02 09:16:26;;;;;;;24.30;16.60;;;;;;;;;;5088658;28;20042;-83
2022/05/02 09:19:12;;;;;;;28.95;16.13;;;;;;;;;;5092361;28;20145;-84
2022/05/02 09:22:19;;;;;;;44.33;17.23;;;;;;;;;;5092027;28;20035;-83
2022/05/02 09:25:03;;;;;;;29.83;15.98;;;;;;;;;;5087401;28;20120;-82
2022/05/02 09:28:02;;;;;;;23.65;14.68;;;;;;;;;;5085809;28;20039;-85
2022/05/02 09:31:09;;;;;;;28.50;14.20;;;;;;;;;;5083395;28;20036;-83
2022/05/02 09:34:16;;;;;;;21.90;15.73;;;;;;;;;;5064212;28;20063;-84
2022/05/02 09:36:41;;;;;;;39.92;17.25;;;;;;;;;;5088835;28;20042;-82
2022/05/02 09:39:36;;;;;;;23.38;16.08;;;;;;;;;;5089566;28;20038;-82
2022/05/02 09:42:32;;;;;;;26.67;14.43;;;;;;;;;;5076230;28;20069;-80
2022/05/02 09:51:47;;;;;;;21.50;14.88;;;;;;;;;;5091756;28;20868;-84
2022/05/02 09:57:34;;;;;;;22.92;13.45;;;;;;;;;;5084633;28;20391;-81
2022/05/02 10:02:52;;;;;;;23.67;14.32;;;;;;;;;;5091222;28;20035;-84
2022/05/02 10:05:29;;;;;;;18.52;12.10;;;;;;;;;;5085295;28;20032;-84
2022/05/02 10:08:22;;;;;;;18.73;11.50;;;;;;;;;;5091162;28;20072;-84
2022/05/02 10:11:14;;;;;;;19.63;10.93;;;;;;;;;;5084521;28;20036;-81
2022/05/02 10:14:22;;;;;;;17.05;12.10;;;;;;;;;;5086928;28;20114;-83
2022/05/02 10:16:55;;;;;;;16.60;11.88;;;;;;;;;;5085174;28;20046;-83
2022/05/02 10:19:35;;;;;;;24.40;10.88;;;;;;;;;;5088841;28;20024;-82
2022/05/02 10:22:29;;;;;;;20.80;11.23;;;;;;;;;;5088395;28;20038;-79
2022/05/02 10:25:10;;;;;;;15.13;10.85;;;;;;;;;;5082563;28;20712;-80
2022/05/02 10:27:41;;;;;;;16.25;10.30;;;;;;;;;;5084302;28;20035;-80
2022/05/02 10:30:11;;;;;;;;;;;;;;;;;;5080877;28;20047;-84
2022/05/02 10:32:49;;;;;;;17.52;10.68;;;;;;;;;;5079458;28;19912;-83
2022/05/02 10:35:17;;;;;;;14.07;10.07;;;;;;;;;;5082619;28;20143;-82
2022/05/02 10:37:54;;;;;;;15.32;10.70;;;;;;;;;;5084211;28;20046;-84
2022/05/02 10:40:44;;;;;;;13.95;9.52;;;;;;;;;;5085451;28;20086;-83
2022/05/02 10:43:15;;;;;;;16.05;10.57;;;;;;;;;;5086535;28;20523;-81
2022/05/02 10:45:41;;;;;;;15.88;10.15;;;;;;;;;;5084610;28;20561;-83
2022/05/02 10:48:19;;;;;;;18.27;10.27;;;;;;;;;;5085328;28;20036;-83
2022/05/02 10:51:28;;;;;;;26.92;21.33;;;;;;;;;;5085924;28;20120;-79
2022/05/02 10:54:08;;;;;;;14.82;9.55;;;;;;;;;;5046387;28;20097;-79
2022/05/02 10:56:43;;;;;;;17.92;10.60;;;;;;;;;;5082531;28;20028;-83
2022/05/02 10:59:12;;;;;;;16.10;9.45;;;;;;;;;;5082291;28;20490;-83
2022/05/02 11:02:14;;;;;;;15.38;8.80;;;;;;;;;;5082587;28;20020;-84
2022/05/02 11:04:49;;;;;;;16.42;9.48;;;;;;;;;;5083970;28;20027;-81
2022/05/02 11:07:30;;;;;;;19.45;9.68;;;;;;;;;;5089166;28;20081;-85
2022/05/02 11:09:55;;;;;;;13.55;9.68;;;;;;;;;;5088418;28;20028;-81
2022/05/02 11:12:31;;;;;;;13.85;9.48;;;;;;;;;;5088321;28;20542;-82
2022/05/02 11:15:06;;;;;;;17.63;9.30;;;;;;;;;;5084607;28;20821;-79
2022/05/02 11:18:08;;;;;;;14.73;9.60;;;;;;;;;;5088786;28;20024;-79
2022/05/02 11:21:12;;;;;;;15.63;8.30;;;;;;;;;;5084513;28;20024;-82
2022/05/02 11:24:13;;;;;;;10.23;7.68;;;;;;;;;;5086707;28;20036;-82
2022/05/02 11:26:48;;;;;;;12.68;8.30;;;;;;;;;;5087187;28;20036;-82
2022/05/02 11:30:05;;;;;;;17.20;8.27;;;;;;;;;;5088764;28;20027;-86
2022/05/02 11:32:53;;;;;;;11.45;8.35;;;;;;;;;;5077167;28;20131;-87
2022/05/02 11:35:41;;;;;;;13.43;8.35;;;;;;;;;;5089199;28;20035;-82
2022/05/02 11:38:36;;;;;;;13.70;9.15;;;;;;;;;;5081674;28;20077;-83
2022/05/02 11:41:21;;;;;;;12.18;8.25;;;;;;;;;;5082087;28;20076;-86
2022/05/02 11:43:48;;;;;;;17.45;7.93;;;;;;;;;;5080371;28;20036;-83
2022/05/02 11:46:36;;;;;;;14.27;8.27;;;;;;;;;;5090727;28;20031;-83
2022/05/02 11:49:20;;;;;;;9.73;6.90;;;;;;;;;;5087428;28;20127;-85
2022/05/02 11:51:50;;;;;;;7.00;5.95;;;;;;;;;;5082019;28;20354;-82
2022/05/02 11:54:28;;;;;;;10.65;7.40;;;;;;;;;;5077876;28;20036;-84
2022/05/02 11:57:24;;;;;;;6.85;5.80;;;;;;;;;;5084446;28;20079;-83
2022/05/02 12:00:29;;;;;;;9.75;6.53;;;;;;;;;;5095380;28;20024;-88
2022/05/02 12:03:12;;;;;;;10.63;6.90;;;;;;;;;;5096374;28;20036;-84
2022/05/02 12:05:55;;;;;;;7.00;5.57;;;;;;;;;;5094596;28;20034;-88
2022/05/02 12:08:38;;;;;;;7.25;5.25;;;;;;;;;;5094111;28;20564;-86
2022/05/02 12:11:12;;;;;;;6.93;5.45;;;;;;;;;;5094626;28;20036;-88
2022/05/02 12:13:44;;;;;;;8.07;6.85;;;;;;;;;;5091118;28;20093;-85
2022/05/02 12:16:20;;;;;;;13.52;6.38;;;;;;;;;;5087935;28;20062;-84
2022/05/02 12:18:57;;;;;;;11.18;7.75;;;;;;;;;;5089930;28;20032;-86
2022/05/02 12:21:33;;;;;;;7.47;5.90;;;;;;;;;;5092877;28;20497;-87
2022/05/02 12:24:03;;;;;;;8.93;5.20;;;;;;;;;;5086234;28;20039;-83
2022/05/02 12:26:32;;;;;;;6.50;4.55;;;;;;;;;;5087473;28;20388;-87
2022/05/02 12:29:17;;;;;;;7.47;4.95;;;;;;;;;;5085729;28;20036;-82
2022/05/02 12:31:57;;;;;;;5.45;4.95;;;;;;;;;;5089116;28;20031;-83
2022/05/02 12:34:49;;;;;;;8.02;5.35;;;;;;;;;;5080124;28;20024;-83
2022/05/02 12:37:33;;;;;;;8.95;5.35;;;;;;;;;;5051866;28;20055;-81
2022/05/02 12:40:08;;;;;;;6.65;4.60;;;;;;;;;;5065166;28;20032;-83
2022/05/02 12:42:56;;;;;;;6.50;4.18;;;;;;;;;;5066561;28;20028;-80
2022/05/02 12:45:23;;;;;;;9.73;4.75;;;;;;;;;;5064178;28;20040;-81
2022/05/02 12:47:59;;;;;;;5.55;4.90;;;;;;;;;;5067189;28;20036;-81
2022/05/02 12:50:28;;;;;;;6.07;4.93;;;;;;;;;;5065447;28;20737;-80
2022/05/02 12:53:01;;;;;;;7.25;4.75;;;;;;;;;;5064354;28;20021;-80
2022/05/02 12:55:38;;;;;;;7.43;4.70;;;;;;;;;;5053659;28;20345;-79
2022/05/02 13:00:58;;;;;;;19.80;7.30;;;;;;;;;;5060996;28;20066;-80
2022/05/02 13:03:27;;;;;;;5.28;4.70;;;;;;;;;;5067558;28;20127;-79
2022/05/02 13:06:03;;;;;;;11.48;5.70;;;;;;;;;;5066975;28;20314;-79
2022/05/02 13:08:38;;;;;;;11.63;4.57;;;;;;;;;;5066547;28;20021;-79
2022/05/02 13:11:08;;;;;;;6.13;4.20;;;;;;;;;;5063675;28;20078;-80
2022/05/02 13:13:54;;;;;;;8.05;5.57;;;;;;;;;;5065999;28;20476;-83
2022/05/02 13:16:44;;;;;;;6.47;4.15;;;;;;;;;;5063813;28;20081;-79
2022/05/02 13:22:48;;;;;;;6.82;4.72;;;;;;;;;;5050861;28;20492;-82
2022/05/02 13:25:14;;;;;;;7.07;4.45;;;;;;;;;;5064587;28;20032;-80
2022/05/02 13:27:43;;;;;;;7.55;4.05;;;;;;;;;;5069630;28;20050;-79
2022/05/02 13:30:10;;;;;;;6.07;4.32;;;;;;;;;;5072202;28;20483;-78
2022/05/02 13:32:55;;;;;;;8.35;4.13;;;;;;;;;;5058435;28;20079;-79
2022/05/02 13:35:26;;;;;;;7.38;3.90;;;;;;;;;;5072738;28;20024;-81
2022/05/02 13:38:00;;;;;;;4.72;3.60;;;;;;;;;;5046924;28;20084;-80
2022/05/02 13:40:48;;;;;;;13.32;5.30;;;;;;;;;;5051289;28;20032;-80
2022/05/02 13:43:37;;;;;;;4.60;3.65;;;;;;;;;;5067861;28;20144;-79
2022/05/02 13:46:27;;;;;;;5.93;3.85;;;;;;;;;;5060782;28;20036;-79
2022/05/02 13:48:52;;;;;;;5.53;3.35;;;;;;;;;;5059361;28;20035;-78
2022/05/02 13:51:32;;;;;;;6.75;4.63;;;;;;;;;;5070872;28;20036;-80
2022/05/02 13:54:10;;;;;;;7.60;3.90;;;;;;;;;;5059314;28;20443;-82
2022/05/02 13:57:05;;;;;;;4.72;4.13;;;;;;;;;;5069708;28;20040;-82
2022/05/02 13:59:46;;;;;;;14.48;4.60;;;;;;;;;;5063340;28;20031;-80
2022/05/02 14:02:47;;;;;;;6.68;4.22;;;;;;;;;;5065892;28;20035;-80
2022/05/02 14:05:30;;;;;;;6.00;5.00;;;;;;;;;;5057932;28;20461;-81
2022/05/02 14:07:58;;;;;;;9.27;4.03;;;;;;;;;;5065414;28;20052;-79
2022/05/02 14:10:24;;;;;;;4.53;3.33;;;;;;;;;;5063432;28;20028;-82
2022/05/02 14:12:51;;;;;;;4.60;3.20;;;;;;;;;;5069960;28;20024;-81
2022/05/02 14:15:19;;;;;;;9.38;4.78;;;;;;;;;;5062513;28;20353;-81
2022/05/02 14:17:51;;;;;;;6.07;4.00;;;;;;;;;;5069041;28;20558;-80
2022/05/02 14:20:28;;;;;;;9.13;4.32;;;;;;;;;;5069128;28;20028;-81
2022/05/02 14:22:59;;;;;;;13.82;3.85;;;;;;;;;;5070776;28;20511;-83
2022/05/02 14:25:28;;;;;;;6.45;3.90;;;;;;;;;;5062629;28;20051;-79
2022/05/02 14:28:09;;;;;;;3.90;3.13;;;;;;;;;;5059153;28;20132;-80
2022/05/02 14:30:38;;;;;;;6.05;4.15;;;;;;;;;;5056390;28;20032;-77
2022/05/02 14:33:15;;;;;;;5.07;3.65;;;;;;;;;;5069657;28;20068;-78
2022/05/02 14:35:43;;;;;;;6.90;4.35;;;;;;;;;;5064992;28;20024;-81
2022/05/02 14:38:15;;;;;;;10.68;3.70;;;;;;;;;;5067662;28;20035;-80
2022/05/02 14:40:43;;;;;;;10.73;4.00;;;;;;;;;;5058698;28;20396;-79
2022/05/02 14:43:11;;;;;;;3.90;3.22;;;;;;;;;;5064365;28;20028;-78
2022/05/02 14:45:38;;;;;;;6.03;3.63;;;;;;;;;;5047287;28;20412;-83
2022/05/02 14:48:08;;;;;;;5.47;3.70;;;;;;;;;;5068329;28;20118;-80
2022/05/02 14:50:37;;;;;;;5.13;3.92;;;;;;;;;;5067772;28;20098;-78
2022/05/02 14:53:10;;;;;;;7.72;4.13;;;;;;;;;;5067850;28;20039;-81
2022/05/02 14:55:40;;;;;;;4.85;3.58;;;;;;;;;;5068759;28;20032;-79
2022/05/02 14:58:09;;;;;;;7.20;4.28;;;;;;;;;;5070589;28;20032;-79
2022/05/02 15:00:41;;;;;;;7.47;3.92;;;;;;;;;;5068558;28;20518;-79
2022/05/02 15:03:14;;;;;;;6.57;3.40;;;;;;;;;;5050669;28;20376;-78
2022/05/02 15:05:44;;;;;;;8.52;3.47;;;;;;;;;;5070070;28;20047;-81
2022/05/02 15:08:33;;;;;;;4.57;3.42;;;;;;;;;;5067567;28;20032;-81
2022/05/02 15:11:27;;;;;;;6.00;3.40;;;;;;;;;;5071087;28;20040;-83
2022/05/02 15:14:24;;;;;;;5.72;3.50;;;;;;;;;;5067889;28;20036;-82
2022/05/02 15:17:14;;;;;;;4.82;3.30;;;;;;;;;;5064031;28;20536;-81
2022/05/02 15:19:58;;;;;;;6.70;4.35;;;;;;;;;;5068870;28;20117;-81
2022/05/02 15:22:32;;;;;;;7.20;4.22;;;;;;;;;;5069320;28;20029;-80
2022/05/02 15:25:09;;;;;;;5.32;4.13;;;;;;;;;;5064184;28;20241;-78
2022/05/02 15:36:46;;;;;;;6.10;5.22;;;;;;;;;;5070355;28;20024;-82
2022/05/02 15:39:30;;;;;;;4.70;4.25;;;;;;;;;;5067739;28;20388;-81
2022/05/02 15:41:56;;;;;;;14.38;5.55;;;;;;;;;;5068262;28;20043;-83
2022/05/02 15:44:39;;;;;;;7.15;4.95;;;;;;;;;;5069647;28;20036;-82
2022/05/02 15:47:23;;;;;;;7.55;4.57;;;;;;;;;;5061226;28;20151;-84
2022/05/02 15:50:10;;;;;;;7.07;5.47;;;;;;;;;;5068146;28;20043;-84
2022/05/02 15:52:58;;;;;;;8.88;5.88;;;;;;;;;;5061205;28;20036;-80
2022/05/02 15:56:10;;;;;;;6.32;5.15;;;;;;;;;;5069126;28;20029;-82
2022/05/02 15:59:01;;;;;;;6.07;4.97;;;;;;;;;;4996763;28;20038;-82
2022/05/02 16:01:56;;;;;;;;;;;;;;;;;;5060386;28;20385;-80
2022/05/02 16:04:36;;;;;;;10.23;4.65;;;;;;;;;;5059914;28;19954;-82